Time;durP1;ratioP1;P1;durP2;ratioP2;P2;SDS_P1;SDS_P2;PMS_P1;PMS_P2;Temp;Humidity;BMP_temperature;BMP_pressure;BME280_temperature;BME280_humidity;BME280_pressure;Samples;Min_cycle;Max_cycle;Signal;HPM_P1;HPM_P2
2022/06/09 00:00:58;;;;;;;41.53;11.75;;;14.70;99.90;;;;;;5056697;28;20036;-80
2022/06/09 00:03:37;;;;;;;68.53;15.77;;;14.70;99.90;;;;;;5072398;28;20045;-80
2022/06/09 00:06:06;;;;;;;42.05;12.00;;;14.70;99.90;;;;;;5071209;28;20087;-80
2022/06/09 00:08:32;;;;;;;160.38;23.35;;;14.60;99.90;;;;;;5073798;28;20448;-80
2022/06/09 00:11:02;;;;;;;270.25;32.58;;;14.60;99.90;;;;;;5087738;28;20126;-81
2022/06/09 00:13:29;;;;;;;212.98;29.73;;;14.60;99.90;;;;;;5057008;28;20549;-80
2022/06/09 00:15:55;;;;;;;43.65;14.02;;;14.60;99.90;;;;;;5056597;28;20396;-80
2022/06/09 00:18:22;;;;;;;52.53;14.10;;;14.60;99.90;;;;;;5054505;28;20060;-80
2022/06/09 00:20:48;;;;;;;56.75;12.85;;;14.60;99.90;;;;;;5065890;28;20048;-80
2022/06/09 00:23:16;;;;;;;71.45;15.50;;;14.60;99.90;;;;;;5076535;28;20408;-80
2022/06/09 00:25:42;;;;;;;210.80;27.00;;;14.60;99.90;;;;;;5065775;28;20045;-80
2022/06/09 00:28:08;;;;;;;122.13;21.15;;;14.60;99.90;;;;;;5066996;28;20411;-80
2022/06/09 00:30:34;;;;;;;47.20;12.82;;;14.50;99.90;;;;;;5076244;28;20045;-80
2022/06/09 00:33:00;;;;;;;48.40;13.07;;;14.60;99.90;;;;;;5073119;28;20041;-80
2022/06/09 00:35:26;;;;;;;57.65;14.85;;;14.60;99.90;;;;;;5071946;28;20041;-80
2022/06/09 00:37:52;;;;;;;53.20;13.63;;;14.60;99.90;;;;;;5070903;28;20400;-80
2022/06/09 00:40:18;;;;;;;50.38;13.35;;;14.60;99.90;;;;;;5091181;28;20052;-80
2022/06/09 00:42:44;;;;;;;95.43;17.08;;;14.50;99.90;;;;;;5076245;28;20037;-80
2022/06/09 00:45:35;;;;;;;65.90;13.00;;;14.50;99.90;;;;;;5057371;28;20159;-80
2022/06/09 00:48:24;;;;;;;96.63;18.35;;;14.50;99.90;;;;;;5071545;28;20041;-80
2022/06/09 00:51:05;;;;;;;154.05;24.05;;;14.50;99.90;;;;;;5055985;28;20049;-81
2022/06/09 00:53:37;;;;;;;65.93;15.70;;;14.40;99.90;;;;;;5055294;28;20044;-80
2022/06/09 00:56:04;;;;;;;46.97;11.75;;;14.40;99.90;;;;;;5072767;28;20048;-80
2022/06/09 00:58:34;;;;;;;68.15;15.38;;;14.50;99.90;;;;;;5073188;28;20055;-80
2022/06/09 01:01:07;;;;;;;56.78;15.05;;;14.40;99.90;;;;;;5054775;28;20041;-80
2022/06/09 01:03:45;;;;;;;172.27;26.65;;;14.40;99.90;;;;;;5054844;28;20135;-80
2022/06/09 01:06:17;;;;;;;85.38;15.98;;;14.40;99.90;;;;;;5070535;28;20486;-80
2022/06/09 01:09:19;;;;;;;63.75;16.55;;;14.40;99.90;;;;;;5054506;28;20053;-80
2022/06/09 01:11:47;;;;;;;90.97;18.48;;;14.40;99.90;;;;;;5018538;28;20544;-80
2022/06/09 01:14:17;;;;;;;70.70;15.20;;;14.40;99.90;;;;;;5070817;28;20048;-81
2022/06/09 01:17:01;;;;;;;95.63;18.13;;;14.40;99.90;;;;;;5073990;28;20458;-80
2022/06/09 01:19:54;;;;;;;54.93;13.63;;;14.40;99.90;;;;;;5074731;28;20044;-80
2022/06/09 01:22:50;;;;;;;61.60;15.23;;;14.40;99.90;;;;;;5072678;28;20306;-80
2022/06/09 01:25:39;;;;;;;69.00;14.15;;;14.30;99.90;;;;;;5074432;28;20045;-80
2022/06/09 01:28:20;;;;;;;36.28;10.98;;;14.30;99.90;;;;;;5035740;28;20135;-80
2022/06/09 01:31:04;;;;;;;43.20;11.65;;;14.30;99.90;;;;;;5073861;28;20128;-80
2022/06/09 01:33:45;;;;;;;58.45;13.75;;;14.30;99.90;;;;;;5037284;28;20131;-80
2022/06/09 01:36:21;;;;;;;40.90;10.75;;;14.30;99.90;;;;;;5073600;28;20530;-80
2022/06/09 01:38:50;;;;;;;41.10;10.27;;;14.30;99.90;;;;;;5075084;28;20049;-80
2022/06/09 01:41:16;;;;;;;50.72;10.95;;;14.30;99.90;;;;;;5069838;28;20079;-80
2022/06/09 01:43:46;;;;;;;47.45;10.95;;;14.30;99.90;;;;;;5054887;28;20092;-80
2022/06/09 01:46:25;;;;;;;62.97;13.15;;;14.20;99.90;;;;;;5037371;28;20059;-80
2022/06/09 01:48:55;;;;;;;29.20;8.95;;;14.20;99.90;;;;;;5054000;28;20485;-79
2022/06/09 01:51:24;;;;;;;54.97;12.45;;;14.20;99.90;;;;;;5070401;28;20080;-80
2022/06/09 01:53:59;;;;;;;45.85;11.13;;;14.20;99.90;;;;;;5054854;28;20078;-80
2022/06/09 01:56:48;;;;;;;43.70;10.57;;;14.20;99.90;;;;;;5054063;28;20037;-80
2022/06/09 01:59:36;;;;;;;54.92;11.98;;;14.10;99.90;;;;;;5054688;28;20048;-80
2022/06/09 02:02:12;;;;;;;38.30;10.45;;;14.20;99.90;;;;;;5049863;28;20084;-80
2022/06/09 02:05:01;;;;;;;38.97;9.38;;;14.10;99.90;;;;;;5053562;28;20102;-80
2022/06/09 02:07:30;;;;;;;120.75;18.88;;;14.10;99.90;;;;;;5053364;28;20052;-80
2022/06/09 02:09:56;;;;;;;63.72;12.55;;;14.10;99.90;;;;;;5053652;28;20047;-80
2022/06/09 02:12:26;;;;;;;50.80;11.68;;;14.00;99.90;;;;;;5069497;28;20048;-80
2022/06/09 02:14:55;;;;;;;38.35;11.10;;;14.00;99.90;;;;;;5053589;28;20450;-80
2022/06/09 02:17:21;;;;;;;43.50;11.15;;;14.00;99.90;;;;;;5052100;28;20052;-80
2022/06/09 02:19:49;;;;;;;46.92;11.32;;;13.90;99.90;;;;;;5054368;28;20102;-80
2022/06/09 02:22:15;;;;;;;54.28;11.85;;;13.90;99.90;;;;;;5069783;28;20123;-80
2022/06/09 02:24:41;;;;;;;45.03;11.15;;;13.90;99.90;;;;;;5063217;28;20526;-80
2022/06/09 02:27:07;;;;;;;41.35;11.13;;;13.80;99.90;;;;;;5072765;28;20045;-80
2022/06/09 02:29:34;;;;;;;121.38;20.33;;;13.80;99.90;;;;;;5071600;28;20047;-80
2022/06/09 02:31:59;;;;;;;63.80;13.70;;;13.80;99.90;;;;;;5071211;28;20139;-80
2022/06/09 02:34:25;;;;;;;54.00;13.43;;;13.80;99.90;;;;;;5064568;28;20119;-80
2022/06/09 02:36:51;;;;;;;53.00;12.40;;;13.80;99.90;;;;;;5054014;28;20041;-80
2022/06/09 02:39:17;;;;;;;135.15;21.27;;;13.70;99.90;;;;;;5059607;28;20041;-80
2022/06/09 02:41:43;;;;;;;88.78;15.50;;;13.70;99.90;;;;;;5073836;28;20052;-80
2022/06/09 02:44:09;;;;;;;69.82;15.23;;;13.70;99.90;;;;;;5067789;28;20033;-80
2022/06/09 02:46:35;;;;;;;40.88;11.45;;;13.70;99.90;;;;;;5053034;28;20099;-80
2022/06/09 02:49:01;;;;;;;49.75;13.73;;;13.70;99.90;;;;;;5072692;28;20492;-79
2022/06/09 02:51:30;;;;;;;68.93;14.70;;;13.70;99.90;;;;;;5073386;28;20118;-80
2022/06/09 02:54:02;;;;;;;30.45;10.88;;;13.70;99.90;;;;;;5070331;28;20131;-80
2022/06/09 02:56:29;;;;;;;40.30;12.48;;;13.70;99.90;;;;;;5053764;28;20489;-79
2022/06/09 02:58:56;;;;;;;55.70;13.80;;;13.70;99.90;;;;;;5053756;28;20071;-79
2022/06/09 03:01:23;;;;;;;65.38;15.43;;;13.70;99.90;;;;;;5073489;28;20044;-80
2022/06/09 03:03:49;;;;;;;45.63;12.70;;;13.70;99.90;;;;;;5064605;28;20055;-79
2022/06/09 03:06:15;;;;;;;91.45;17.33;;;13.60;99.90;;;;;;5052852;28;20053;-80
2022/06/09 03:08:41;;;;;;;37.55;11.63;;;13.70;99.90;;;;;;5053772;28;20045;-80
2022/06/09 03:11:07;;;;;;;37.15;10.80;;;13.60;99.90;;;;;;5053388;28;20119;-80
2022/06/09 03:13:33;;;;;;;38.75;12.93;;;13.60;99.90;;;;;;5052864;28;20061;-80
2022/06/09 03:15:59;;;;;;;38.05;11.40;;;13.60;99.90;;;;;;5082918;28;20040;-80
2022/06/09 03:18:24;;;;;;;81.10;17.77;;;13.60;99.90;;;;;;5073393;28;20044;-80
2022/06/09 03:20:50;;;;;;;36.40;12.60;;;13.60;99.90;;;;;;5068704;28;20139;-80
2022/06/09 03:23:16;;;;;;;51.90;13.57;;;13.60;99.90;;;;;;5053489;28;20053;-80
2022/06/09 03:25:43;;;;;;;114.63;22.30;;;13.60;99.90;;;;;;5069591;28;20037;-80
2022/06/09 03:28:09;;;;;;;38.13;12.18;;;13.60;99.90;;;;;;5052306;28;20053;-80
2022/06/09 03:30:35;;;;;;;94.13;17.58;;;13.50;99.90;;;;;;5052263;28;20084;-80
2022/06/09 03:33:01;;;;;;;106.40;19.27;;;13.50;99.90;;;;;;5053067;28;20531;-80
2022/06/09 03:35:28;;;;;;;40.17;11.48;;;13.50;99.90;;;;;;5052628;28;20041;-80
2022/06/09 03:37:54;;;;;;;62.47;17.60;;;13.50;99.90;;;;;;5069834;28;20491;-80
2022/06/09 03:40:20;;;;;;;122.38;24.08;;;13.50;99.90;;;;;;5071912;28;20044;-80
2022/06/09 03:42:46;;;;;;;42.35;12.23;;;13.50;99.90;;;;;;5057683;28;20129;-80
2022/06/09 03:45:12;;;;;;;34.50;11.88;;;13.50;99.90;;;;;;5055806;28;20072;-80
2022/06/09 03:47:39;;;;;;;35.92;11.13;;;13.50;99.90;;;;;;5068919;28;20571;-80
2022/06/09 03:50:08;;;;;;;29.08;10.55;;;13.50;99.90;;;;;;5075828;28;20131;-80
2022/06/09 03:52:34;;;;;;;70.78;15.63;;;13.50;99.90;;;;;;5075674;28;20430;-80
2022/06/09 03:55:00;;;;;;;63.67;16.42;;;13.50;99.90;;;;;;5075289;28;20059;-80
2022/06/09 03:57:26;;;;;;;34.80;12.32;;;13.50;99.90;;;;;;5073457;28;20128;-80
2022/06/09 03:59:52;;;;;;;34.42;12.75;;;13.50;99.90;;;;;;5062882;28;20135;-80
2022/06/09 04:02:17;;;;;;;37.58;12.35;;;13.50;99.90;;;;;;5056013;28;20131;-80
2022/06/09 04:04:43;;;;;;;35.60;11.63;;;13.60;99.90;;;;;;5066727;28;20068;-80
2022/06/09 04:07:11;;;;;;;125.28;22.08;;;13.50;99.90;;;;;;5058839;28;20396;-81
2022/06/09 04:09:37;;;;;;;39.55;13.55;;;13.60;99.90;;;;;;5066251;28;20045;-81
2022/06/09 04:12:04;;;;;;;32.58;12.00;;;13.60;99.90;;;;;;5056601;28;20386;-82
2022/06/09 04:14:30;;;;;;;25.58;13.77;;;13.60;99.90;;;;;;5056784;28;20392;-81
2022/06/09 04:16:56;;;;;;;34.25;15.20;;;13.50;99.90;;;;;;5071360;28;20067;-81
2022/06/09 04:19:23;;;;;;;29.35;13.02;;;13.60;99.90;;;;;;5062918;28;20044;-81
2022/06/09 04:21:49;;;;;;;41.45;16.95;;;13.60;99.90;;;;;;5075188;28;20044;-81
2022/06/09 04:24:15;;;;;;;45.50;19.10;;;13.60;99.90;;;;;;5052489;28;20075;-84
2022/06/09 04:26:42;;;;;;;50.38;22.75;;;13.60;99.90;;;;;;5076579;28;20090;-82
2022/06/09 04:29:13;;;;;;;38.97;21.58;;;13.60;99.90;;;;;;5074945;28;20056;-82
2022/06/09 04:31:40;;;;;;;44.50;24.65;;;13.60;99.90;;;;;;5074220;28;20783;-82
2022/06/09 04:34:06;;;;;;;40.85;23.27;;;13.60;99.90;;;;;;5068549;28;20049;-83
2022/06/09 04:36:32;;;;;;;89.28;29.88;;;13.60;99.90;;;;;;5056370;28;20504;-82
2022/06/09 04:38:58;;;;;;;52.53;24.35;;;13.60;99.90;;;;;;5061097;28;20131;-87
2022/06/09 04:41:24;;;;;;;92.85;29.95;;;13.60;99.90;;;;;;5057907;28;20064;-84
2022/06/09 04:43:50;;;;;;;39.72;23.77;;;13.70;99.90;;;;;;5076218;28;20047;-85
2022/06/09 04:46:19;;;;;;;59.92;28.30;;;13.60;99.90;;;;;;5075790;28;20068;-84
2022/06/09 04:48:45;;;;;;;49.30;25.48;;;13.70;99.90;;;;;;5074998;28;20441;-84
2022/06/09 04:51:16;;;;;;;62.25;29.85;;;13.70;99.90;;;;;;5073449;28;20045;-86
2022/06/09 04:53:43;;;;;;;50.88;28.17;;;13.70;99.90;;;;;;5075470;28;20044;-85
2022/06/09 04:56:09;;;;;;;45.58;23.58;;;13.70;99.90;;;;;;5073039;28;20549;-86
2022/06/09 04:58:38;;;;;;;46.72;25.40;;;13.70;99.90;;;;;;5071370;28;20055;-85
2022/06/09 05:01:05;;;;;;;79.57;30.80;;;13.70;99.90;;;;;;5071303;28;20040;-85
2022/06/09 05:03:32;;;;;;;43.05;24.73;;;13.70;99.90;;;;;;5054621;28;20099;-85
2022/06/09 05:05:58;;;;;;;51.97;25.38;;;13.70;99.90;;;;;;5055087;28;20128;-85
2022/06/09 05:08:25;;;;;;;39.60;23.55;;;13.80;99.90;;;;;;5064148;28;20044;-85
2022/06/09 05:10:50;;;;;;;50.83;24.75;;;13.80;99.90;;;;;;5075363;28;20500;-84
2022/06/09 05:13:17;;;;;;;66.60;28.05;;;13.80;99.90;;;;;;5072038;28;20089;-83
2022/06/09 05:15:55;;;;;;;48.70;27.02;;;13.80;99.90;;;;;;5054260;28;20108;-83
2022/06/09 05:18:26;;;;;;;49.42;25.73;;;13.80;99.90;;;;;;5070877;28;20136;-83
2022/06/09 05:20:53;;;;;;;43.83;24.45;;;13.80;99.90;;;;;;5073546;28;20048;-84
2022/06/09 05:23:20;;;;;;;67.95;28.48;;;13.80;99.90;;;;;;5074136;28;20515;-84
2022/06/09 05:25:47;;;;;;;57.72;27.90;;;13.80;99.90;;;;;;5073337;28;20040;-84
2022/06/09 05:28:14;;;;;;;67.03;29.10;;;13.90;99.90;;;;;;5073742;28;20098;-82
2022/06/09 05:30:39;;;;;;;95.60;32.63;;;13.90;99.90;;;;;;5057686;28;20044;-81
2022/06/09 05:33:05;;;;;;;42.47;26.23;;;13.90;99.90;;;;;;5075264;28;20047;-82
2022/06/09 05:35:31;;;;;;;62.53;27.90;;;13.90;99.90;;;;;;5075924;28;20071;-81
2022/06/09 05:46:15;;;;;;;39.22;22.52;;;14.00;99.90;;;;;;5074766;28;20054;-84
2022/06/09 05:48:41;;;;;;;35.65;22.00;;;14.10;99.90;;;;;;5073987;28;20055;-82
2022/06/09 05:51:07;;;;;;;29.88;18.92;;;14.10;99.90;;;;;;5073473;28;20059;-83
2022/06/09 05:53:33;;;;;;;30.67;20.17;;;14.10;99.90;;;;;;5058528;28;20045;-82
2022/06/09 05:55:59;;;;;;;26.90;19.60;;;14.20;99.90;;;;;;5091187;28;20041;-82
2022/06/09 05:58:25;;;;;;;30.88;20.50;;;14.20;99.90;;;;;;5070218;28;20044;-83
2022/06/09 06:00:50;;;;;;;32.28;20.20;;;14.20;99.90;;;;;;5073477;28;20040;-82
2022/06/09 06:03:17;;;;;;;49.25;23.75;;;14.20;99.90;;;;;;5073647;28;20093;-82
2022/06/09 06:08:27;;;;;;;31.13;20.67;;;14.30;99.90;;;;;;5069448;28;20056;-83
2022/06/09 06:10:53;;;;;;;27.60;19.75;;;14.40;99.90;;;;;;5054474;28;20420;-82
2022/06/09 06:13:20;;;;;;;36.30;21.98;;;14.50;99.90;;;;;;5090797;28;20131;-81
2022/06/09 06:15:45;;;;;;;19.60;16.08;;;14.60;99.90;;;;;;5072431;28;20147;-80
2022/06/09 06:18:11;;;;;;;20.38;16.05;;;14.70;99.90;;;;;;5055145;28;20536;-80
2022/06/09 06:20:37;;;;;;;29.70;17.23;;;14.70;99.90;;;;;;5069665;28;20459;-80
2022/06/09 06:23:03;;;;;;;18.23;15.52;;;14.70;99.90;;;;;;5071092;28;20044;-80
2022/06/09 06:25:29;;;;;;;19.42;15.80;;;14.70;99.90;;;;;;5073254;28;20040;-81
2022/06/09 06:27:55;;;;;;;16.90;13.77;;;14.80;99.90;;;;;;5057406;28;20059;-80
2022/06/09 06:30:21;;;;;;;21.42;16.17;;;14.90;99.90;;;;;;5052104;28;20124;-80
2022/06/09 06:32:47;;;;;;;19.23;14.07;;;15.10;99.90;;;;;;5066957;28;20541;-81
2022/06/09 06:35:14;;;;;;;15.70;12.35;;;15.10;99.90;;;;;;5071484;28;20048;-80
2022/06/09 06:37:40;;;;;;;15.90;11.38;;;15.20;99.90;;;;;;5072034;28;20097;-80
2022/06/09 06:40:09;;;;;;;14.48;11.88;;;15.20;99.90;;;;;;5065166;28;20053;-80
2022/06/09 06:42:35;;;;;;;18.73;13.25;;;15.30;99.90;;;;;;5047385;28;20042;-79
2022/06/09 06:45:00;;;;;;;17.50;12.88;;;15.40;99.90;;;;;;5060629;28;20045;-80
2022/06/09 06:47:27;;;;;;;18.55;12.02;;;15.50;99.90;;;;;;5053845;28;20041;-80
2022/06/09 06:49:52;;;;;;;15.75;10.57;;;15.60;99.90;;;;;;5056272;28;20092;-82
2022/06/09 06:52:18;;;;;;;18.45;11.10;;;15.60;99.90;;;;;;5060797;28;20064;-80
2022/06/09 06:54:44;;;;;;;15.43;9.50;;;15.70;99.90;;;;;;5073593;28;20052;-80
2022/06/09 06:57:10;;;;;;;14.40;9.15;;;15.80;99.90;;;;;;5073130;28;20028;-81
2022/06/09 06:59:35;;;;;;;14.75;8.32;;;15.90;99.90;;;;;;5047757;28;20142;-80
2022/06/09 07:02:02;;;;;;;9.77;6.35;;;15.90;99.90;;;;;;5056347;28;20037;-82
2022/06/09 07:04:28;;;;;;;11.40;6.80;;;16.00;99.90;;;;;;5054856;28;20063;-82
2022/06/09 07:06:56;;;;;;;9.00;7.20;;;16.00;99.90;;;;;;5073018;28;20054;-81
2022/06/09 07:09:21;;;;;;;9.38;8.02;;;16.10;99.90;;;;;;5070766;28;20054;-80
2022/06/09 07:11:47;;;;;;;10.85;7.55;;;16.10;99.90;;;;;;5071020;28;20060;-81
2022/06/09 07:14:13;;;;;;;10.63;6.28;;;16.10;99.90;;;;;;5071585;28;20084;-81
2022/06/09 07:16:39;;;;;;;9.82;5.93;;;16.10;99.90;;;;;;5075038;28;20472;-81
2022/06/09 07:19:05;;;;;;;7.53;4.65;;;16.20;99.90;;;;;;5071644;28;20059;-81
2022/06/09 07:21:32;;;;;;;9.32;5.63;;;16.20;99.90;;;;;;5074295;28;20040;-82
2022/06/09 07:23:58;;;;;;;9.45;5.28;;;16.30;99.90;;;;;;5072561;28;20044;-83
2022/06/09 07:26:24;;;;;;;12.50;5.85;;;16.40;99.90;;;;;;5068554;28;20033;-83
2022/06/09 07:28:50;;;;;;;7.30;3.58;;;16.40;99.90;;;;;;5051638;28;20508;-81
2022/06/09 07:31:16;;;;;;;6.50;3.40;;;16.40;99.90;;;;;;5052264;28;20127;-83
2022/06/09 07:33:42;;;;;;;6.53;3.45;;;16.50;99.90;;;;;;5071842;28;20472;-81
2022/06/09 07:36:12;;;;;;;7.20;3.45;;;16.60;99.90;;;;;;5063289;28;20044;-83
2022/06/09 07:38:38;;;;;;;9.60;3.38;;;16.70;99.90;;;;;;5061262;28;20052;-85
2022/06/09 07:41:05;;;;;;;12.50;3.08;;;16.70;99.90;;;;;;5070935;28;20373;-87
2022/06/09 07:43:31;;;;;;;5.63;2.28;;;16.70;99.90;;;;;;5073275;28;20135;-84
2022/06/09 07:45:57;;;;;;;6.97;2.90;;;16.70;99.90;;;;;;5069055;28;20112;-85
2022/06/09 07:48:23;;;;;;;7.53;2.55;;;16.70;99.90;;;;;;5063127;28;20185;-87
2022/06/09 07:50:50;;;;;;;10.50;1.98;;;16.70;99.90;;;;;;5073032;28;20510;-85
2022/06/09 07:53:19;;;;;;;8.90;1.75;;;16.80;99.90;;;;;;5071428;28;20049;-84
2022/06/09 07:55:46;;;;;;;6.95;1.58;;;16.90;99.90;;;;;;5071130;28;20400;-84
2022/06/09 07:58:13;;;;;;;8.82;2.00;;;17.00;99.90;;;;;;5070572;28;20044;-86
2022/06/09 08:00:40;;;;;;;11.27;2.47;;;17.10;99.90;;;;;;5057659;28;20102;-87
2022/06/09 08:03:06;;;;;;;10.23;1.88;;;17.10;99.90;;;;;;5050965;28;20045;-82
2022/06/09 08:05:33;;;;;;;10.30;2.80;;;17.10;99.90;;;;;;5053050;28;20053;-86
2022/06/09 08:08:00;;;;;;;10.82;1.80;;;17.10;99.90;;;;;;5052002;28;20045;-85
2022/06/09 08:10:28;;;;;;;7.75;1.92;;;17.10;99.90;;;;;;5087092;28;20564;-86
2022/06/09 08:12:57;;;;;;;5.20;1.70;;;17.10;99.90;;;;;;5071554;28;20044;-84
2022/06/09 08:15:25;;;;;;;4.70;1.20;;;17.10;99.90;;;;;;5054335;28;20492;-84
2022/06/09 08:18:00;;;;;;;7.50;1.55;;;17.10;99.90;;;;;;5066443;28;20068;-84
2022/06/09 08:20:30;;;;;;;6.72;1.70;;;17.10;99.90;;;;;;5056661;28;20049;-85
2022/06/09 08:23:04;;;;;;;9.15;1.92;;;17.10;99.90;;;;;;5065418;28;20392;-85
2022/06/09 08:25:31;;;;;;;11.00;2.22;;;17.10;99.90;;;;;;5071697;28;20476;-85
2022/06/09 08:27:57;;;;;;;6.70;1.50;;;17.10;99.90;;;;;;5069659;28;20133;-84
2022/06/09 08:30:24;;;;;;;7.78;2.25;;;17.10;99.90;;;;;;5055982;28;20457;-83
2022/06/09 08:32:53;;;;;;;3.22;1.30;;;17.20;99.90;;;;;;5066950;28;20116;-86
2022/06/09 08:35:19;;;;;;;7.53;1.50;;;17.30;99.90;;;;;;5054778;28;20074;-87
2022/06/09 08:37:48;;;;;;;7.88;1.55;;;17.40;99.90;;;;;;5070043;28;20053;-83
2022/06/09 08:40:21;;;;;;;10.63;1.55;;;17.40;99.90;;;;;;5056672;28;20511;-84
2022/06/09 08:42:52;;;;;;;6.40;1.40;;;17.40;99.90;;;;;;5088893;28;20545;-84
2022/06/09 08:45:31;;;;;;;5.40;1.50;;;17.40;99.90;;;;;;5080232;28;20045;-84
2022/06/09 08:48:03;;;;;;;6.35;1.92;;;17.50;99.90;;;;;;5069237;28;20080;-88
2022/06/09 08:50:41;;;;;;;5.53;1.40;;;17.50;99.90;;;;;;5053771;28;20041;-85
2022/06/09 08:53:15;;;;;;;8.73;1.60;;;17.50;99.90;;;;;;5090714;28;20050;-83
2022/06/09 08:55:55;;;;;;;;;;;17.60;99.90;;;;;;5073461;28;20076;-82
2022/06/09 08:58:41;;;;;;;9.43;1.85;;;17.50;99.90;;;;;;5053427;28;19929;-82
2022/06/09 09:01:10;;;;;;;10.45;2.08;;;17.50;99.90;;;;;;5062284;28;20391;-82
2022/06/09 09:04:08;;;;;;;14.50;2.63;;;17.50;99.90;;;;;;5076134;28;20395;-83
2022/06/09 09:06:45;;;;;;;8.35;1.98;;;17.60;99.90;;;;;;5045487;28;20553;-82
2022/06/09 09:09:22;;;;;;;9.38;1.27;;;17.50;99.90;;;;;;5055543;28;20041;-82
2022/06/09 09:12:06;;;;;;;10.63;1.90;;;17.40;99.90;;;;;;5063775;28;20064;-81
2022/06/09 09:14:56;;;;;;;8.10;1.48;;;17.40;99.90;;;;;;5060174;28;20464;-81
2022/06/09 09:17:38;;;;;;;7.32;1.58;;;17.50;99.90;;;;;;5055219;28;20075;-82
2022/06/09 09:20:16;;;;;;;9.75;1.65;;;17.50;99.90;;;;;;5053435;28;20052;-82
2022/06/09 09:22:59;;;;;;;7.55;1.70;;;17.50;99.90;;;;;;5055448;28;20067;-84
2022/06/09 09:25:48;;;;;;;7.13;1.70;;;17.50;99.90;;;;;;5053115;28;20045;-81
2022/06/09 09:28:16;;;;;;;11.35;1.90;;;17.50;99.90;;;;;;5070758;28;20079;-81
2022/06/09 09:31:20;;;;;;;8.65;1.80;;;17.50;99.90;;;;;;5071748;28;20036;-85
2022/06/09 09:33:46;;;;;;;8.73;1.80;;;17.40;99.90;;;;;;5073833;28;20067;-82
2022/06/09 09:36:28;;;;;;;12.68;2.22;;;17.40;99.90;;;;;;5073138;28;20045;-82
2022/06/09 09:39:00;;;;;;;12.88;1.80;;;17.50;99.90;;;;;;5073659;28;20098;-82
2022/06/09 09:41:36;;;;;;;5.57;2.05;;;17.60;99.90;;;;;;5066750;28;20039;-82
2022/06/09 09:44:23;;;;;;;10.38;1.77;;;17.60;99.90;;;;;;5054845;28;20437;-83
2022/06/09 09:46:56;;;;;;;12.77;1.73;;;17.60;99.90;;;;;;5054019;28;20448;-82
2022/06/09 09:49:40;;;;;;;9.25;1.77;;;17.60;99.90;;;;;;5054687;28;20167;-83
2022/06/09 09:52:42;;;;;;;16.80;2.10;;;17.60;99.90;;;;;;5054580;28;20045;-83
2022/06/09 09:55:31;;;;;;;10.40;2.13;;;17.70;99.90;;;;;;5075464;28;20048;-81
2022/06/09 09:58:15;;;;;;;9.50;1.33;;;17.80;99.90;;;;;;5072743;28;20040;-83
2022/06/09 10:00:41;;;;;;;6.40;1.40;;;17.90;99.90;;;;;;5061746;28;20088;-81
2022/06/09 10:09:02;;;;;;;6.85;1.60;;;18.20;99.90;;;;;;5089143;28;20082;-81
2022/06/09 10:11:54;;;;;;;6.88;1.40;;;18.30;99.90;;;;;;5072484;28;20415;-81
2022/06/09 10:14:39;;;;;;;7.32;1.55;;;18.30;99.90;;;;;;5072294;28;20051;-81
2022/06/09 10:17:44;;;;;;;6.47;1.33;;;18.40;99.90;;;;;;5069857;28;20396;-82
2022/06/09 10:20:31;;;;;;;9.93;1.30;;;18.50;99.90;;;;;;5065619;28;20126;-84
2022/06/09 10:23:09;;;;;;;5.00;1.17;;;18.50;99.90;;;;;;5071873;28;20135;-81
2022/06/09 10:26:09;;;;;;;7.47;1.30;;;18.50;99.90;;;;;;5063919;28;20040;-83
2022/06/09 10:29:11;;;;;;;7.85;1.80;;;18.60;99.90;;;;;;5071974;28;20123;-83
2022/06/09 10:31:51;;;;;;;6.75;1.20;;;18.70;99.90;;;;;;5055772;28;20163;-83
2022/06/09 10:34:42;;;;;;;9.88;1.25;;;18.60;99.90;;;;;;5055302;28;20044;-85
2022/06/09 10:37:46;;;;;;;7.15;1.33;;;18.50;99.90;;;;;;5071835;28;20052;-83
2022/06/09 10:40:26;;;;;;;7.65;1.30;;;18.30;99.90;;;;;;5040022;28;20492;-82
2022/06/09 10:43:20;;;;;;;11.10;1.42;;;18.30;99.90;;;;;;5072074;28;20044;-83
2022/06/09 10:46:10;;;;;;;5.30;1.17;;;18.40;99.90;;;;;;5072719;28;20041;-82
2022/06/09 10:57:46;;;;;;;5.20;1.20;;;17.90;99.90;;;;;;5088467;28;20048;-83
2022/06/09 11:00:23;;;;;;;9.98;1.10;;;18.00;99.90;;;;;;5071574;28;20045;-83
2022/06/09 11:02:54;;;;;;;7.53;1.92;;;18.00;99.90;;;;;;5072732;28;20083;-82
2022/06/09 11:05:32;;;;;;;8.13;1.88;;;18.00;99.90;;;;;;5054989;28;20037;-80
2022/06/09 11:08:22;;;;;;;9.30;1.83;;;18.00;99.90;;;;;;5072604;28;20052;-83
2022/06/09 11:11:09;;;;;;;6.70;1.92;;;18.10;99.90;;;;;;5063361;28;20056;-85
2022/06/09 11:13:51;;;;;;;12.63;1.95;;;18.20;99.90;;;;;;5069309;28;20051;-83
2022/06/09 11:16:35;;;;;;;5.63;1.23;;;18.40;99.90;;;;;;5052286;28;20044;-84
2022/06/09 11:19:12;;;;;;;7.95;1.45;;;18.50;99.90;;;;;;5050875;28;20080;-83
2022/06/09 11:22:01;;;;;;;7.05;1.75;;;18.60;99.90;;;;;;5072980;28;20051;-84
2022/06/09 11:24:45;;;;;;;8.88;1.40;;;18.80;99.90;;;;;;5051804;28;20048;-83
2022/06/09 11:27:53;;;;;;;7.25;2.05;;;18.80;99.90;;;;;;5069774;28;20040;-84
2022/06/09 11:30:39;;;;;;;5.85;1.20;;;18.80;99.90;;;;;;5050814;28;20103;-84
2022/06/09 11:33:24;;;;;;;9.18;1.40;;;18.80;99.90;;;;;;5068865;28;20133;-84
2022/06/09 11:36:06;;;;;;;5.22;1.30;;;19.00;99.90;;;;;;5053366;28;20439;-85
2022/06/09 11:39:06;;;;;;;9.93;1.42;;;19.10;99.90;;;;;;5061401;28;20076;-85
2022/06/09 11:41:43;;;;;;;8.68;1.50;;;19.00;99.90;;;;;;5053427;28;20045;-82
2022/06/09 11:44:36;;;;;;;13.27;2.33;;;19.00;99.90;;;;;;5066054;28;20071;-83
2022/06/09 11:47:14;;;;;;;7.82;1.63;;;19.00;99.90;;;;;;5061339;28;20037;-83
2022/06/09 11:49:56;;;;;;;7.20;1.83;;;19.00;99.90;;;;;;5059840;28;20124;-82
2022/06/09 11:52:28;;;;;;;6.25;1.50;;;18.80;99.90;;;;;;5059607;28;20551;-83
2022/06/09 11:54:55;;;;;;;10.68;1.75;;;18.70;99.90;;;;;;5056745;28;20037;-81
2022/06/09 11:57:25;;;;;;;6.97;1.60;;;18.50;99.90;;;;;;5072260;28;20515;-82
2022/06/09 12:00:01;;;;;;;5.70;1.20;;;18.40;99.90;;;;;;5066761;28;20080;-87
2022/06/09 12:02:45;;;;;;;7.15;1.90;;;18.30;99.90;;;;;;5072988;28;20048;-84
2022/06/09 12:05:22;;;;;;;9.80;1.70;;;18.30;99.90;;;;;;5055992;28;20080;-81
2022/06/09 12:08:16;;;;;;;9.38;2.15;;;18.40;99.90;;;;;;5069893;28;20067;-83
2022/06/09 12:10:54;;;;;;;8.98;1.88;;;18.50;99.90;;;;;;5076047;28;20057;-83
2022/06/09 12:13:23;;;;;;;8.30;1.15;;;18.70;99.90;;;;;;5074466;28;20439;-82
2022/06/09 12:16:00;;;;;;;3.50;1.15;;;18.90;99.90;;;;;;5043902;28;20535;-81
2022/06/09 12:18:36;;;;;;;3.67;1.08;;;19.10;99.90;;;;;;5073010;28;20052;-88
2022/06/09 12:21:27;;;;;;;4.63;1.27;;;19.20;99.90;;;;;;5056328;28;20044;-88
2022/06/09 12:24:01;;;;;;;6.22;2.00;;;19.20;99.90;;;;;;5081232;28;20120;-85
2022/06/09 12:26:48;;;;;;;7.07;1.08;;;19.20;99.90;;;;;;5063769;28;20188;-84
2022/06/09 12:29:35;;;;;;;8.07;1.50;;;19.10;99.90;;;;;;5064779;28;20044;-84
2022/06/09 12:32:10;;;;;;;8.07;1.60;;;18.90;99.90;;;;;;5075697;28;20510;-82
2022/06/09 12:34:41;;;;;;;;;;;18.80;99.90;;;;;;5074704;28;20044;-85
2022/06/09 12:37:20;;;;;;;4.93;1.20;;;18.80;99.90;;;;;;5056260;28;19974;-86
2022/06/09 12:39:53;;;;;;;3.80;0.88;;;18.90;99.90;;;;;;5074560;28;20090;-85
2022/06/09 12:42:33;;;;;;;6.82;1.80;;;18.90;99.90;;;;;;5072283;28;20086;-84
2022/06/09 12:45:16;;;;;;;5.75;1.13;;;18.70;99.90;;;;;;5060206;28;20096;-86
2022/06/09 12:48:00;;;;;;;3.45;0.88;;;18.60;99.90;;;;;;5068560;28;20514;-85
2022/06/09 12:50:52;;;;;;;6.50;1.37;;;18.60;99.90;;;;;;5063989;28;20098;-83
2022/06/09 12:53:21;;;;;;;7.00;1.38;;;18.50;99.90;;;;;;5061570;28;20313;-85
2022/06/09 12:55:54;;;;;;;9.10;1.40;;;18.50;99.90;;;;;;5053986;28;20554;-88
2022/06/09 12:58:47;;;;;;;4.25;1.33;;;18.50;99.90;;;;;;5056602;28;20052;-87
2022/06/09 13:01:21;;;;;;;5.43;1.38;;;18.50;99.90;;;;;;5058312;28;20404;-84
2022/06/09 13:03:57;;;;;;;5.78;1.63;;;18.60;99.90;;;;;;5063761;28;20098;-86
2022/06/09 13:06:35;;;;;;;7.15;1.30;;;18.80;99.90;;;;;;5060037;28;20056;-86
2022/06/09 13:09:29;;;;;;;7.35;1.80;;;19.00;99.90;;;;;;5067015;28;20098;-85
2022/06/09 13:14:45;;;;;;;7.78;1.70;;;19.20;99.90;;;;;;5070168;28;20105;-82
2022/06/09 13:17:26;;;;;;;8.80;1.50;;;19.30;99.90;;;;;;5071337;28;20126;-87
2022/06/09 13:20:13;;;;;;;7.05;1.45;;;19.50;99.90;;;;;;5073173;28;20041;-87
2022/06/09 13:22:39;;;;;;;6.25;1.38;;;19.50;99.90;;;;;;5061713;28;20048;-84
2022/06/09 13:25:10;;;;;;;8.27;1.48;;;19.60;99.90;;;;;;5066044;28;20033;-83
2022/06/09 13:27:38;;;;;;;5.90;1.20;;;19.50;99.90;;;;;;5074209;28;20052;-84
2022/06/09 13:30:48;;;;;;;4.72;1.30;;;19.50;99.90;;;;;;5072172;28;20045;-83
2022/06/09 13:33:34;;;;;;;4.28;1.00;;;19.30;99.90;;;;;;5057074;28;20439;-86